Time;durP1;ratioP1;P1;durP2;ratioP2;P2;SDS_P1;SDS_P2;PMS_P1;PMS_P2;Temp;Humidity;BMP_temperature;BMP_pressure;BME280_temperature;BME280_humidity;BME280_pressure;Samples;Min_cycle;Max_cycle;Signal;HPM_P1;HPM_P2
2023/08/16 00:00:48;;;;;;;;;;;;;;;19.54;83.43;101835.31;5065749;28;19904;-60
2023/08/16 00:03:13;;;;;;;;;;;;;;;19.51;82.54;101834.41;5065653;28;19905;-60
2023/08/16 00:05:40;;;;;;;;;;;;;;;19.40;83.51;101844.97;5052081;28;20003;-60
2023/08/16 00:08:05;;;;;;;;;;;;;;;19.33;84.05;101838.78;5058457;28;19928;-61
2023/08/16 00:10:30;;;;;;;;;;;;;;;19.34;84.33;101837.03;5045811;28;19921;-60
2023/08/16 00:12:56;;;;;;;;;;;;;;;19.35;84.51;101839.69;5046551;28;19927;-60
2023/08/16 00:15:22;;;;;;;;;;;;;;;19.35;84.53;101844.97;5057191;28;19962;-60
2023/08/16 00:17:47;;;;;;;;;;;;;;;19.30;83.47;101846.69;5063702;28;19949;-61
2023/08/16 00:20:13;;;;;;;;;;;;;;;19.22;84.70;101844.03;5063519;28;19909;-60
2023/08/16 00:22:38;;;;;;;;;;;;;;;19.20;85.15;101840.47;5063687;28;19909;-60
2023/08/16 00:25:03;;;;;;;;;;;;;;;19.23;85.38;101844.91;5058922;28;20123;-60
2023/08/16 00:27:28;;;;;;;;;;;;;;;19.24;85.09;101846.69;5059511;28;19952;-60
2023/08/16 00:29:53;;;;;;;;;;;;;;;19.25;84.82;101845.81;5058584;28;19909;-60
2023/08/16 00:32:19;;;;;;;;;;;;;;;19.25;84.90;101844.03;5059813;28;20047;-60
2023/08/16 00:34:44;;;;;;;;;;;;;;;19.24;84.72;101839.63;5048179;28;20154;-60
2023/08/16 00:37:09;;;;;;;;;;;;;;;19.25;84.64;101837.88;5057829;28;19908;-60
2023/08/16 00:39:34;;;;;;;;;;;;;;;19.24;84.85;101841.41;5060829;28;19964;-60
2023/08/16 00:42:00;;;;;;;;;;;;;;;19.15;83.97;101841.34;5041352;28;19912;-60
2023/08/16 00:44:25;;;;;;;;;;;;;;;18.99;84.56;101848.31;5063952;28;19923;-60
2023/08/16 00:46:50;;;;;;;;;;;;;;;18.88;85.87;101853.56;5062352;28;19923;-61
2023/08/16 00:49:16;;;;;;;;;;;;;;;18.89;86.33;101853.56;5061163;28;19929;-60
2023/08/16 00:51:41;;;;;;;;;;;;;;;18.93;86.17;101850.06;5054245;28;19921;-60
2023/08/16 00:54:06;;;;;;;;;;;;;;;18.94;86.03;101865.06;5044609;28;19909;-60
2023/08/16 00:56:32;;;;;;;;;;;;;;;18.96;86.35;101866.78;5050707;28;20246;-61
2023/08/16 00:58:57;;;;;;;;;;;;;;;18.98;85.83;101867.69;5051899;28;20143;-60
2023/08/16 01:01:22;;;;;;;;;;;;;;;18.98;86.02;101867.69;5060584;28;20095;-60
2023/08/16 01:03:48;;;;;;;;;;;;;;;19.00;86.13;101865.94;5064675;28;19909;-60
2023/08/16 01:06:13;;;;;;;;;;;;;;;19.00;85.86;101865.94;5049472;28;19928;-60
2023/08/16 01:08:38;;;;;;;;;;;;;;;18.98;85.62;101862.41;5064050;28;19908;-60
2023/08/16 01:11:08;;;;;;;;;;;;;;;18.96;85.81;101862.41;5037453;28;20161;-60
2023/08/16 01:13:42;;;;;;;;;;;;;;;18.89;85.33;101869.41;5064473;28;19940;-60
2023/08/16 01:16:09;;;;;;;;;;;;;;;18.75;86.17;101869.28;5061971;28;19924;-60
2023/08/16 01:18:35;;;;;;;;;;;;;;;18.68;86.30;101870.13;5040486;28;19967;-60
2023/08/16 01:21:01;;;;;;;;;;;;;;;18.68;86.64;101871.88;5047090;28;20240;-60
2023/08/16 01:23:35;;;;;;;;;;;;;;;18.69;86.86;101878.94;5061792;28;19905;-60
2023/08/16 01:26:03;;;;;;;;;;;;;;;18.67;86.59;101875.38;5046774;28;19908;-60
2023/08/16 01:28:29;;;;;;;;;;;;;;;18.68;86.94;101878.03;5061600;28;19915;-60
2023/08/16 01:30:58;;;;;;;;;;;;;;;18.66;86.96;101885.06;5063696;28;19909;-60
2023/08/16 01:33:23;;;;;;;;;;;;;;;18.67;87.43;101885.94;5062276;28;20198;-60
2023/08/16 01:35:48;;;;;;;;;;;;;;;18.67;87.36;101888.59;5043619;28;19924;-60
2023/08/16 01:38:14;;;;;;;;;;;;;;;18.66;87.18;101893.00;5055230;28;19920;-60
2023/08/16 01:40:59;;;;;;;;;;;;;;;18.69;87.36;101895.66;5044562;28;19908;-60
2023/08/16 01:43:25;;;;;;;;;;;;;;;18.74;87.45;101885.13;5061172;28;19909;-60
2023/08/16 01:45:51;;;;;;;;;;;;;;;18.77;87.10;101879.88;5060638;28;20058;-60
2023/08/16 01:48:17;;;;;;;;;;;;;;;18.74;87.26;101885.13;5055105;28;19920;-60
2023/08/16 01:50:43;;;;;;;;;;;;;;;18.70;87.41;101878.06;5063047;28;19931;-60
2023/08/16 01:53:08;;;;;;;;;;;;;;;18.68;87.29;101885.09;5062391;28;20141;-60
2023/08/16 01:55:33;;;;;;;;;;;;;;;18.66;87.24;101879.78;5062444;28;19915;-60
2023/08/16 01:57:59;;;;;;;;;;;;;;;18.65;87.10;101882.44;5050127;28;20158;-61
2023/08/16 02:00:24;;;;;;;;;;;;;;;18.58;87.41;101882.41;5050716;28;19947;-60
2023/08/16 02:02:49;;;;;;;;;;;;;;;18.50;87.32;101888.50;5043443;28;19909;-60
2023/08/16 02:05:14;;;;;;;;;;;;;;;18.47;87.95;101888.47;5060057;28;19924;-60
2023/08/16 02:07:40;;;;;;;;;;;;;;;18.47;88.03;101893.75;5045197;28;20055;-60
2023/08/16 02:10:05;;;;;;;;;;;;;;;18.45;87.85;101899.03;5043634;28;20159;-60
2023/08/16 02:12:30;;;;;;;;;;;;;;;18.46;87.93;101899.88;5048926;28;19964;-60
2023/08/16 02:14:55;;;;;;;;;;;;;;;18.44;88.07;101889.31;5052852;28;19944;-60
2023/08/16 02:17:20;;;;;;;;;;;;;;;18.45;88.08;101890.19;5051424;28;19951;-60
2023/08/16 02:19:46;;;;;;;;;;;;;;;18.44;88.18;101897.25;5056956;28;19955;-61
2023/08/16 02:22:14;;;;;;;;;;;;;;;18.40;87.99;101895.44;5060777;28;19916;-60
2023/08/16 02:24:40;;;;;;;;;;;;;;;18.36;87.61;101896.28;5055728;28;20160;-60
2023/08/16 02:27:05;;;;;;;;;;;;;;;18.27;88.14;101896.22;5060867;28;19955;-60
2023/08/16 02:29:30;;;;;;;;;;;;;;;18.25;88.51;101891.81;5059365;28;19916;-60
2023/08/16 02:31:55;;;;;;;;;;;;;;;18.21;88.07;101894.41;5044250;28;19909;-60
2023/08/16 02:34:20;;;;;;;;;;;;;;;18.17;88.95;101904.03;5059489;28;20257;-60
2023/08/16 02:36:45;;;;;;;;;;;;;;;18.17;89.04;101896.13;5061994;28;19909;-60
2023/08/16 02:39:11;;;;;;;;;;;;;;;18.17;88.86;101901.41;5058644;28;19950;-60
2023/08/16 02:41:36;;;;;;;;;;;;;;;18.17;89.04;101893.47;5033441;28;19908;-60
2023/08/16 02:44:01;;;;;;;;;;;;;;;18.16;88.77;101888.19;5060669;28;19975;-61
2023/08/16 02:46:26;;;;;;;;;;;;;;;18.15;88.84;101886.44;5061707;28;19909;-60
2023/08/16 02:48:51;;;;;;;;;;;;;;;18.11;88.41;101882.88;5057904;28;19922;-60
2023/08/16 02:51:17;;;;;;;;;;;;;;;18.06;89.43;101881.94;5057333;28;19909;-60
2023/08/16 02:53:42;;;;;;;;;;;;;;;18.04;89.26;101879.28;5057194;28;19916;-60
2023/08/16 02:56:07;;;;;;;;;;;;;;;18.04;89.16;101867.88;5060814;28;19955;-60
2023/08/16 02:58:33;;;;;;;;;;;;;;;18.00;88.47;101869.63;5055150;28;20022;-60
2023/08/16 03:00:58;;;;;;;;;;;;;;;17.96;89.16;101881.00;5056976;28;19971;-60
2023/08/16 03:03:23;;;;;;;;;;;;;;;17.95;88.79;101889.78;5063730;28;20196;-60
2023/08/16 03:05:49;;;;;;;;;;;;;;;17.97;89.28;101887.16;5055553;28;20119;-60
2023/08/16 03:08:15;;;;;;;;;;;;;;;17.97;89.30;101881.88;5066346;28;20180;-60
2023/08/16 03:10:40;;;;;;;;;;;;;;;17.98;89.20;101891.56;5064394;28;19913;-60
2023/08/16 03:13:05;;;;;;;;;;;;;;;17.97;89.41;101880.09;5044553;28;20051;-60
2023/08/16 03:15:30;;;;;;;;;;;;;;;17.98;89.46;101889.78;5057531;28;19919;-60
2023/08/16 03:17:56;;;;;;;;;;;;;;;17.98;89.35;101895.06;5057439;28;19928;-60
2023/08/16 03:20:21;;;;;;;;;;;;;;;17.98;89.45;101888.94;5064079;28;19916;-60
2023/08/16 03:22:46;;;;;;;;;;;;;;;17.98;88.62;101894.19;5065207;28;19909;-60
2023/08/16 03:25:11;;;;;;;;;;;;;;;17.90;89.19;101897.63;5062056;28;19983;-60
2023/08/16 03:27:37;;;;;;;;;;;;;;;17.89;89.78;101901.09;5063801;28;19916;-60
2023/08/16 03:30:02;;;;;;;;;;;;;;;17.92;89.32;101899.41;5062642;28;19909;-60
2023/08/16 03:32:27;;;;;;;;;;;;;;;17.92;89.43;101888.88;5064310;28;20126;-60
2023/08/16 03:34:53;;;;;;;;;;;;;;;17.90;89.76;101884.47;5065478;28;19984;-60
2023/08/16 03:37:18;;;;;;;;;;;;;;;17.89;89.64;101889.69;5063769;28;20014;-60
2023/08/16 03:39:43;;;;;;;;;;;;;;;17.88;90.02;101888.78;5064438;28;19924;-60
2023/08/16 03:42:08;;;;;;;;;;;;;;;17.85;89.73;101898.44;5063296;28;20134;-60
2023/08/16 03:44:34;;;;;;;;;;;;;;;17.80;90.60;101900.13;5060159;28;20150;-60
2023/08/16 03:46:59;;;;;;;;;;;;;;;17.80;90.49;101897.47;5061296;28;20154;-60
2023/08/16 03:49:24;;;;;;;;;;;;;;;17.82;90.68;101898.41;5064636;28;19905;-60
2023/08/16 03:51:49;;;;;;;;;;;;;;;17.86;90.35;101905.47;5062963;28;20011;-60
2023/08/16 03:54:14;;;;;;;;;;;;;;;17.86;90.70;101901.06;5065152;28;19920;-60
2023/08/16 03:56:40;;;;;;;;;;;;;;;17.89;90.38;101905.50;5065806;28;19911;-60
2023/08/16 03:59:05;;;;;;;;;;;;;;;17.89;90.16;101905.50;5064186;28;19988;-61
2023/08/16 04:01:30;;;;;;;;;;;;;;;17.88;90.04;101909.88;5057378;28;19948;-60
2023/08/16 04:03:56;;;;;;;;;;;;;;;17.88;90.32;101914.28;5059594;28;20091;-60
2023/08/16 04:06:21;;;;;;;;;;;;;;;17.85;90.21;101912.47;5057501;28;20147;-60
2023/08/16 04:08:46;;;;;;;;;;;;;;;17.81;90.44;101904.53;5063874;28;20004;-60
2023/08/16 04:11:11;;;;;;;;;;;;;;;17.80;90.40;101914.19;5064632;28;19912;-60
2023/08/16 04:13:37;;;;;;;;;;;;;;;17.78;90.48;101918.56;5063483;28;20197;-60
2023/08/16 04:16:02;;;;;;;;;;;;;;;17.75;90.68;101915.88;5056135;28;20150;-60
2023/08/16 04:18:28;;;;;;;;;;;;;;;17.72;90.48;101921.13;5054643;28;19935;-60
2023/08/16 04:20:53;;;;;;;;;;;;;;;17.64;89.53;101921.06;5054447;28;20202;-60
2023/08/16 04:23:19;;;;;;;;;;;;;;;17.50;90.08;101918.25;5049600;28;19943;-60
2023/08/16 04:25:44;;;;;;;;;;;;;;;17.39;90.41;101922.50;5056777;28;19976;-60
2023/08/16 04:28:09;;;;;;;;;;;;;;;17.34;90.72;101926.84;5058959;28;19909;-60
2023/08/16 04:30:34;;;;;;;;;;;;;;;17.34;91.10;101926.84;5060893;28;19920;-60
2023/08/16 04:32:59;;;;;;;;;;;;;;;17.36;90.63;101925.09;5061852;28;20097;-60
2023/08/16 04:35:25;;;;;;;;;;;;;;;17.37;90.72;101926.88;5055406;28;20054;-60
2023/08/16 04:37:50;;;;;;;;;;;;;;;17.37;91.11;101926.88;5052446;28;19933;-60
2023/08/16 04:40:15;;;;;;;;;;;;;;;17.38;91.45;101924.25;5059214;28;20268;-60
2023/08/16 04:42:40;;;;;;;;;;;;;;;17.40;91.25;101924.28;5059619;28;19913;-60
2023/08/16 04:45:06;;;;;;;;;;;;;;;17.40;90.94;101924.28;5062851;28;19919;-60
2023/08/16 04:47:31;;;;;;;;;;;;;;;17.34;91.03;101925.06;5062527;28;19916;-60
2023/08/16 04:49:59;;;;;;;;;;;;;;;17.30;91.08;101931.16;5062829;28;20143;-60
2023/08/16 04:52:24;;;;;;;;;;;;;;;17.30;91.02;101919.75;5053936;28;19908;-60
2023/08/16 04:54:49;;;;;;;;;;;;;;;17.28;91.03;101917.09;5062635;28;19983;-60
2023/08/16 04:57:14;;;;;;;;;;;;;;;17.27;91.02;101920.59;5057341;28;19913;-60
2023/08/16 04:59:40;;;;;;;;;;;;;;;17.27;91.60;101922.34;5061618;28;19925;-60
2023/08/16 05:02:05;;;;;;;;;;;;;;;17.28;91.69;101925.00;5061318;28;20058;-60
2023/08/16 05:04:30;;;;;;;;;;;;;;;17.29;91.31;101939.03;5060256;28;19950;-60
2023/08/16 05:06:56;;;;;;;;;;;;;;;17.28;91.63;101932.91;5051624;28;19909;-60
2023/08/16 05:09:21;;;;;;;;;;;;;;;17.25;91.68;101937.22;5051895;28;19913;-60
2023/08/16 05:11:46;;;;;;;;;;;;;;;17.24;91.65;101939.00;5059883;28;20190;-60
2023/08/16 05:14:11;;;;;;;;;;;;;;;17.22;91.40;101932.81;5049299;28;19909;-60
2023/08/16 05:16:36;;;;;;;;;;;;;;;17.21;91.34;101939.81;5063467;28;19954;-60
2023/08/16 05:19:02;;;;;;;;;;;;;;;17.16;91.54;101933.63;5063693;28;20066;-60
2023/08/16 05:21:27;;;;;;;;;;;;;;;17.12;91.48;101941.44;5057099;28;19915;-60
2023/08/16 05:23:53;;;;;;;;;;;;;;;17.10;92.00;101941.41;5059242;28;19951;-60
2023/08/16 05:26:18;;;;;;;;;;;;;;;17.09;92.02;101947.56;5044942;28;19930;-61
2023/08/16 05:28:43;;;;;;;;;;;;;;;17.09;92.23;101951.94;5062881;28;19990;-60
2023/08/16 05:31:09;;;;;;;;;;;;;;;17.11;92.09;101950.22;5053861;28;20893;-60
2023/08/16 05:33:34;;;;;;;;;;;;;;;17.13;92.52;101953.75;5035258;28;19924;-60
2023/08/16 05:36:00;;;;;;;;;;;;;;;17.15;92.16;101955.56;5056123;28;20146;-60
2023/08/16 05:38:25;;;;;;;;;;;;;;;17.20;92.72;101953.84;5063140;28;20288;-61
2023/08/16 05:40:51;;;;;;;;;;;;;;;17.23;92.79;101960.03;5050474;28;19980;-61
2023/08/16 05:43:16;;;;;;;;;;;;;;;17.24;92.46;101952.16;5045140;28;19932;-60
2023/08/16 05:45:41;;;;;;;;;;;;;;;17.25;92.29;101953.94;5055200;28;19921;-60
2023/08/16 05:48:06;;;;;;;;;;;;;;;17.27;92.89;101956.59;5061695;28;20079;-60
2023/08/16 05:50:31;;;;;;;;;;;;;;;17.30;92.34;101956.63;5045141;28;20162;-61
2023/08/16 05:52:57;;;;;;;;;;;;;;;17.33;92.64;101956.66;5047938;28;19908;-60
2023/08/16 05:55:22;;;;;;;;;;;;;;;17.36;92.42;101961.97;5060034;28;20194;-60
2023/08/16 05:57:47;;;;;;;;;;;;;;;17.40;92.40;101968.19;5049418;28;19905;-60
2023/08/16 06:00:13;;;;;;;;;;;;;;;17.44;91.98;101977.88;5043644;28;19992;-60
2023/08/16 06:02:38;;;;;;;;;;;;;;;17.45;92.04;101983.19;5056931;28;20043;-60
2023/08/16 06:05:04;;;;;;;;;;;;;;;17.47;92.61;101988.47;5044691;28;19909;-61
2023/08/16 06:07:29;;;;;;;;;;;;;;;17.48;92.37;101988.50;5051668;28;19917;-60
2023/08/16 06:09:55;;;;;;;;;;;;;;;17.50;92.53;101985.88;5057312;28;19909;-60
2023/08/16 06:12:20;;;;;;;;;;;;;;;17.50;92.65;101983.25;5052413;28;19988;-61
2023/08/16 06:14:45;;;;;;;;;;;;;;;17.53;92.27;101980.66;5060059;28;19917;-61
2023/08/16 06:17:11;;;;;;;;;;;;;;;17.55;92.77;101978.91;5063316;28;19904;-60
2023/08/16 06:19:36;;;;;;;;;;;;;;;17.57;92.77;101977.19;5062416;28;19912;-60
2023/08/16 06:22:02;;;;;;;;;;;;;;;17.60;92.67;101965.78;5055653;28;20006;-61
2023/08/16 06:24:32;;;;;;;;;;;;;;;17.64;92.68;101967.59;5057250;28;19939;-60
2023/08/16 06:26:57;;;;;;;;;;;;;;;17.66;92.37;101966.75;5063152;28;19947;-61
2023/08/16 06:29:22;;;;;;;;;;;;;;;17.69;92.52;101971.19;5060252;28;19917;-60
2023/08/16 06:31:48;;;;;;;;;;;;;;;17.70;92.59;101975.59;5055390;28;19909;-61
2023/08/16 06:34:13;;;;;;;;;;;;;;;17.70;92.62;101975.59;5049167;28;20059;-61
2023/08/16 06:36:38;;;;;;;;;;;;;;;17.70;92.68;101968.56;5048343;28;19966;-60
2023/08/16 06:39:04;;;;;;;;;;;;;;;17.71;92.44;101977.34;5062194;28;19967;-61
2023/08/16 06:41:29;;;;;;;;;;;;;;;17.73;92.68;101978.28;5056152;28;19908;-61
2023/08/16 06:43:54;;;;;;;;;;;;;;;17.76;92.65;101972.16;5055530;28;19911;-60
2023/08/16 06:46:19;;;;;;;;;;;;;;;17.80;92.19;101980.13;5056624;28;20276;-60
2023/08/16 06:48:46;;;;;;;;;;;;;;;17.85;91.75;101970.50;5056198;28;19909;-61
2023/08/16 06:51:12;;;;;;;;;;;;;;;17.87;91.69;101971.41;5061035;28;19969;-60
2023/08/16 06:53:39;;;;;;;;;;;;;;;17.88;91.85;101970.53;5059205;28;19908;-61
2023/08/16 06:56:04;;;;;;;;;;;;;;;17.92;91.84;101971.50;5060553;28;19905;-60
2023/08/16 06:58:29;;;;;;;;;;;;;;;17.99;91.42;101969.81;5059174;28;19970;-61
2023/08/16 07:00:55;;;;;;;;;;;;;;;18.06;91.45;101976.91;5058610;28;19936;-61
2023/08/16 07:03:20;;;;;;;;;;;;;;;18.12;92.00;101984.91;5050078;28;19909;-60
2023/08/16 07:05:45;;;;;;;;;;;;;;;18.17;91.73;101984.94;5042861;28;19909;-61
2023/08/16 07:08:11;;;;;;;;;;;;;;;18.21;91.22;101992.91;5037033;28;19924;-61
2023/08/16 07:10:36;;;;;;;;;;;;;;;18.30;91.41;101994.75;5052475;28;19915;-61
2023/08/16 07:13:02;;;;;;;;;;;;;;;18.38;90.90;101997.47;5061022;28;19920;-61
2023/08/16 07:15:28;;;;;;;;;;;;;;;18.41;91.00;101995.75;5058723;28;19920;-61
2023/08/16 07:17:53;;;;;;;;;;;;;;;18.45;90.74;101993.13;5059838;28;19913;-60
2023/08/16 07:20:18;;;;;;;;;;;;;;;18.48;90.68;101986.13;5059592;28;19905;-61
2023/08/16 07:22:43;;;;;;;;;;;;;;;18.54;90.84;101975.63;5059710;28;19908;-61
2023/08/16 07:25:10;;;;;;;;;;;;;;;18.63;90.10;101980.09;5050847;28;19976;-60
2023/08/16 07:27:35;;;;;;;;;;;;;;;18.72;90.10;101984.56;5052745;28;19916;-61
2023/08/16 07:30:00;;;;;;;;;;;;;;;18.77;90.10;101994.28;5058086;28;19908;-61
2023/08/16 07:32:25;;;;;;;;;;;;;;;18.84;89.85;101997.88;5054323;28;20050;-61
2023/08/16 07:34:51;;;;;;;;;;;;;;;18.89;89.19;102003.22;5062338;28;19968;-61
2023/08/16 07:37:17;;;;;;;;;;;;;;;18.91;89.31;101997.06;5047938;28;19923;-61
2023/08/16 07:39:42;;;;;;;;;;;;;;;18.96;89.06;101994.47;5047740;28;19930;-61
2023/08/16 07:42:08;;;;;;;;;;;;;;;18.99;89.04;101998.88;5062194;28;19951;-61
2023/08/16 07:44:33;;;;;;;;;;;;;;;19.02;89.04;101998.91;5059346;28;19970;-61
2023/08/16 07:47:00;;;;;;;;;;;;;;;19.07;89.19;102005.09;5033240;28;19909;-61
2023/08/16 07:49:25;;;;;;;;;;;;;;;19.17;89.46;102004.28;5061531;28;19988;-61
2023/08/16 07:51:50;;;;;;;;;;;;;;;19.28;87.81;101996.44;5060095;28;19972;-61
2023/08/16 07:54:15;;;;;;;;;;;;;;;19.36;88.36;101997.34;5053353;28;19979;-61
2023/08/16 07:56:41;;;;;;;;;;;;;;;19.47;87.97;102002.72;5058973;28;20218;-61
2023/08/16 07:59:06;;;;;;;;;;;;;;;19.53;85.76;102008.03;5049123;28;20070;-61
2023/08/16 08:01:31;;;;;;;;;;;;;;;19.58;86.78;102008.94;5053843;28;19947;-61
2023/08/16 08:03:57;;;;;;;;;;;;;;;19.69;86.53;102016.03;5049308;28;19920;-61
2023/08/16 08:06:22;;;;;;;;;;;;;;;19.81;84.96;102005.53;5059702;28;19916;-61
2023/08/16 08:08:47;;;;;;;;;;;;;;;19.89;85.86;102006.44;5062881;28;19909;-61
2023/08/16 08:11:14;;;;;;;;;;;;;;;20.06;86.40;102017.09;5062019;28;19925;-61
2023/08/16 08:13:39;;;;;;;;;;;;;;;20.20;85.41;102021.53;5064643;28;20047;-61
2023/08/16 08:16:04;;;;;;;;;;;;;;;20.36;84.68;102022.44;5065721;28;20043;-61
2023/08/16 08:18:30;;;;;;;;;;;;;;;20.47;84.03;102029.53;5053886;28;19905;-61
2023/08/16 08:20:55;;;;;;;;;;;;;;;20.54;81.98;102021.56;5064412;28;19939;-61
2023/08/16 08:23:20;;;;;;;;;;;;;;;20.57;82.29;102019.84;5056854;28;20623;-61
2023/08/16 08:25:47;;;;;;;;;;;;;;;20.65;82.84;102025.13;5051813;28;19905;-61
2023/08/16 08:28:13;;;;;;;;;;;;;;;20.73;81.12;102030.47;5064629;28;19913;-61
2023/08/16 08:30:38;;;;;;;;;;;;;;;20.72;80.60;102021.63;5055704;28;19975;-61
2023/08/16 08:33:04;;;;;;;;;;;;;;;20.80;80.86;102019.88;5060531;28;19915;-61
2023/08/16 08:35:31;;;;;;;;;;;;;;;20.94;81.04;102014.59;5059622;28;19909;-61
2023/08/16 08:37:56;;;;;;;;;;;;;;;21.11;81.26;102018.97;5061611;28;19917;-61
2023/08/16 08:40:21;;;;;;;;;;;;;;;21.22;78.89;102025.13;5040994;28;19912;-61
2023/08/16 08:42:48;;;;;;;;;;;;;;;21.26;79.91;102024.25;5064515;28;19947;-61
2023/08/16 08:45:14;;;;;;;;;;;;;;;21.39;78.46;102013.59;5063811;28;19909;-61
2023/08/16 08:47:39;;;;;;;;;;;;;;;21.51;78.15;102022.44;5055358;28;19909;-61
2023/08/16 08:50:04;;;;;;;;;;;;;;;21.62;76.46;102030.34;5053083;28;19920;-62
2023/08/16 08:52:31;;;;;;;;;;;;;;;21.70;76.74;102025.03;5063126;28;19909;-62
2023/08/16 08:54:58;;;;;;;;;;;;;;;21.74;75.41;102025.88;5040246;28;19931;-63
2023/08/16 08:57:24;;;;;;;;;;;;;;;21.77;77.08;102031.19;5064230;28;19912;-62
2023/08/16 08:59:52;;;;;;;;;;;;;;;21.81;78.23;102035.59;5060511;28;19909;-62
2023/08/16 09:02:19;;;;;;;;;;;;;;;21.88;78.15;102030.28;5060707;28;19918;-62
2023/08/16 09:04:46;;;;;;;;;;;;;;;21.94;77.76;102032.03;5060819;28;20141;-61
2023/08/16 09:07:12;;;;;;;;;;;;;;;22.02;78.71;102029.31;5064245;28;20007;-61
2023/08/16 09:09:37;;;;;;;;;;;;;;;22.11;77.54;102029.25;5064110;28;19905;-62
2023/08/16 09:12:03;;;;;;;;;;;;;;;22.13;77.94;102023.94;5062749;28;19909;-62
2023/08/16 09:14:30;;;;;;;;;;;;;;;22.17;77.35;102023.94;5060461;28;19983;-61
2023/08/16 09:16:55;;;;;;;;;;;;;;;22.20;77.26;102025.66;5061627;28;20147;-61
2023/08/16 09:19:20;;;;;;;;;;;;;;;22.17;74.47;102031.91;5063458;28;19913;-61
2023/08/16 09:21:45;;;;;;;;;;;;;;;22.08;74.04;102034.59;5058612;28;19932;-61
2023/08/16 09:24:11;;;;;;;;;;;;;;;22.05;73.31;102038.13;5054554;28;19976;-61
2023/08/16 09:26:37;;;;;;;;;;;;;;;21.96;73.04;102038.19;5061652;28;19923;-61
2023/08/16 09:29:03;;;;;;;;;;;;;;;21.80;74.48;102039.16;5026296;28;19928;-61
2023/08/16 09:31:31;;;;;;;;;;;;;;;21.70;73.94;102036.53;5044031;28;19925;-61
2023/08/16 09:34:00;;;;;;;;;;;;;;;21.64;75.36;102041.84;5058757;28;19916;-61
2023/08/16 09:36:26;;;;;;;;;;;;;;;21.74;76.13;102037.41;5061459;28;19909;-61
2023/08/16 09:38:52;;;;;;;;;;;;;;;21.90;76.50;102030.25;5064051;28;19911;-61
2023/08/16 09:41:18;;;;;;;;;;;;;;;22.12;75.50;102028.38;5063008;28;19974;-61
2023/08/16 09:43:44;;;;;;;;;;;;;;;22.24;74.34;102028.28;5060376;28;19909;-61
2023/08/16 09:46:09;;;;;;;;;;;;;;;22.35;76.36;102022.09;5050580;28;19927;-61
2023/08/16 09:48:35;;;;;;;;;;;;;;;22.55;76.12;102022.81;5039958;28;20154;-61
2023/08/16 09:51:01;;;;;;;;;;;;;;;22.62;75.57;102030.72;5048302;28;19931;-61
2023/08/16 09:53:27;;;;;;;;;;;;;;;22.72;75.80;102029.75;5054479;28;19909;-62
2023/08/16 09:55:52;;;;;;;;;;;;;;;22.87;75.34;102036.72;5043513;28;19963;-61
2023/08/16 09:58:18;;;;;;;;;;;;;;;22.91;74.60;102022.50;5043700;28;19960;-61
2023/08/16 10:00:43;;;;;;;;;;;;;;;22.98;74.69;102024.22;5053532;28;19908;-61
2023/08/16 10:03:09;;;;;;;;;;;;;;;23.04;72.82;102021.53;5055592;28;20132;-61
2023/08/16 10:05:34;;;;;;;;;;;;;;;23.06;75.19;102030.34;5062999;28;20192;-61
2023/08/16 10:08:05;;;;;;;;;;;;;;;23.16;74.99;102024.97;5057452;28;19917;-61
2023/08/16 10:10:31;;;;;;;;;;;;;;;23.22;75.09;102020.47;5054899;28;20619;-61
2023/08/16 10:12:56;;;;;;;;;;;;;;;23.27;72.81;102018.66;5057585;28;19920;-61
2023/08/16 10:15:22;;;;;;;;;;;;;;;23.20;74.06;102021.38;5058798;28;19920;-61
2023/08/16 10:17:50;;;;;;;;;;;;;;;23.16;74.40;102019.66;5061916;28;19959;-61
2023/08/16 10:20:29;;;;;;;;;;;;;;;23.11;73.80;102018.84;5063188;28;20072;-61
2023/08/16 10:22:58;;;;;;;;;;;;;;;23.08;73.95;102011.72;5063230;28;20009;-61
2023/08/16 10:25:25;;;;;;;;;;;;;;;22.95;72.20;102024.25;5061206;28;19909;-61
2023/08/16 10:27:53;;;;;;;;;;;;;;;22.82;71.74;102019.94;5056091;28;19909;-61
2023/08/16 10:30:20;;;;;;;;;;;;;;;22.75;73.08;102019.09;5061020;28;20142;-61
2023/08/16 10:32:46;;;;;;;;;;;;;;;22.73;74.75;102019.13;5052135;28;19916;-61
2023/08/16 10:35:12;;;;;;;;;;;;;;;22.77;75.15;102019.09;5054699;28;19909;-61
2023/08/16 10:37:38;;;;;;;;;;;;;;;22.82;75.59;102018.16;5059708;28;20181;-61
2023/08/16 10:40:03;;;;;;;;;;;;;;;22.89;75.84;102021.66;5055824;28;19904;-61
2023/08/16 10:42:29;;;;;;;;;;;;;;;22.95;74.93;102018.94;5050921;28;19956;-61
2023/08/16 10:44:54;;;;;;;;;;;;;;;23.06;74.18;102022.38;5054323;28;19947;-61
2023/08/16 10:47:27;;;;;;;;;;;;;;;23.10;74.20;102015.22;5058777;28;19948;-61
2023/08/16 10:49:52;;;;;;;;;;;;;;;23.22;75.35;102017.81;5057817;28;19925;-61
2023/08/16 10:52:38;;;;;;;;;;;;;;;23.31;73.84;102014.19;5061239;28;20089;-61
2023/08/16 10:55:03;;;;;;;;;;;;;;;23.22;70.61;102008.97;5054192;28;19951;-60
2023/08/16 10:57:28;;;;;;;;;;;;;;;23.17;73.06;102008.13;5054730;28;19905;-60
2023/08/16 11:00:07;;;;;;;;;;;;;;;23.13;72.19;102014.38;5058063;28;19932;-60
2023/08/16 11:02:34;;;;;;;;;;;;;;;23.13;73.51;102014.38;5038235;28;19955;-61
2023/08/16 11:05:00;;;;;;;;;;;;;;;23.22;73.63;102019.59;5059805;28;19908;-62
2023/08/16 11:07:26;;;;;;;;;;;;;;;23.33;73.70;102006.19;5059903;28;19936;-62
2023/08/16 11:09:52;;;;;;;;;;;;;;;23.44;73.99;102009.59;5060021;28;19908;-61
2023/08/16 11:12:17;;;;;;;;;;;;;;;23.56;74.24;102012.09;5061956;28;19968;-61
2023/08/16 11:14:45;;;;;;;;;;;;;;;23.61;73.65;102012.06;5056672;28;20113;-61
2023/08/16 11:17:14;;;;;;;;;;;;;;;23.61;73.05;102006.75;5047599;28;19928;-62
2023/08/16 11:19:40;;;;;;;;;;;;;;;23.59;73.80;102011.19;5055745;28;19909;-62
2023/08/16 11:22:05;;;;;;;;;;;;;;;23.47;72.02;102012.22;5061654;28;19916;-62
2023/08/16 11:24:31;;;;;;;;;;;;;;;23.37;72.48;102011.44;5043991;28;20158;-62
2023/08/16 11:26:56;;;;;;;;;;;;;;;23.28;71.26;102008.91;5056648;28;20154;-61
2023/08/16 11:29:21;;;;;;;;;;;;;;;23.27;72.98;102008.03;5063802;28;19920;-63
2023/08/16 11:31:46;;;;;;;;;;;;;;;23.30;73.17;102001.78;5065762;28;20295;-61
2023/08/16 11:34:13;;;;;;;;;;;;;;;23.46;73.69;101996.28;5064533;28;19910;-61
2023/08/16 11:36:38;;;;;;;;;;;;;;;23.58;73.98;101996.16;5048758;28;19905;-61
2023/08/16 11:39:04;;;;;;;;;;;;;;;23.61;72.92;101996.09;5064939;28;19964;-61
2023/08/16 11:41:29;;;;;;;;;;;;;;;23.68;73.30;101999.56;5065708;28;19927;-61
2023/08/16 11:43:59;;;;;;;;;;;;;;;23.73;72.61;102001.25;5064145;28;19986;-61
2023/08/16 11:46:24;;;;;;;;;;;;;;;23.83;73.27;101993.19;5063736;28;20161;-61
2023/08/16 11:48:49;;;;;;;;;;;;;;;23.91;73.22;102002.84;5065219;28;19908;-62
2023/08/16 11:51:14;;;;;;;;;;;;;;;24.01;73.41;102000.91;5045163;28;19954;-62
2023/08/16 11:53:40;;;;;;;;;;;;;;;24.15;73.84;101989.22;5063468;28;19909;-62
2023/08/16 11:56:09;;;;;;;;;;;;;;;24.31;72.77;101988.06;5065693;28;19956;-62
2023/08/16 11:58:45;;;;;;;;;;;;;;;24.62;73.27;101976.94;5065619;28;19943;-63
2023/08/16 12:01:12;;;;;;;;;;;;;;;24.87;71.20;101984.50;5065755;28;19943;-62
2023/08/16 12:03:37;;;;;;;;;;;;;;;24.97;70.36;101970.97;5065359;28;19905;-62
2023/08/16 12:06:06;;;;;;;;;;;;;;;25.09;70.78;101975.19;5061283;28;19916;-62
2023/08/16 12:08:31;;;;;;;;;;;;;;;25.21;66.83;101981.22;5063656;28;19920;-62
2023/08/16 12:10:56;;;;;;;;;;;;;;;25.29;69.25;101973.94;5060737;28;19909;-62
2023/08/16 12:13:22;;;;;;;;;;;;;;;25.35;68.49;101981.84;5045756;28;19964;-62
2023/08/16 12:15:48;;;;;;;;;;;;;;;25.24;64.99;101981.13;5048241;28;19905;-62
2023/08/16 12:18:16;;;;;;;;;;;;;;;24.98;65.31;101980.75;5057770;28;19931;-61
2023/08/16 12:20:42;;;;;;;;;;;;;;;24.79;67.92;101980.16;5061710;28;19909;-61
2023/08/16 12:23:08;;;;;;;;;;;;;;;24.71;68.28;101976.78;5056210;28;19924;-61
2023/08/16 12:25:34;;;;;;;;;;;;;;;24.65;68.06;101974.19;5062268;28;19990;-61
2023/08/16 12:27:59;;;;;;;;;;;;;;;24.57;68.38;101974.31;5065403;28;19905;-61